createdAt,value
2024-03-12T00:01:45.183Z,100809.00
2024-03-12T00:04:12.870Z,100806.75
2024-03-12T00:06:40.471Z,100808.13
2024-03-12T00:09:11.087Z,100807.50
2024-03-12T00:11:38.674Z,100798.94
2024-03-12T00:14:05.993Z,100801.38
2024-03-12T00:16:35.421Z,100807.50
2024-03-12T00:19:04.334Z,100810.34
2024-03-12T00:21:31.989Z,100811.50
2024-03-12T00:24:00.422Z,100811.50
2024-03-12T00:26:30.356Z,100808.25
2024-03-12T00:28:57.745Z,100810.69
2024-03-12T00:31:25.997Z,100812.69
2024-03-12T00:33:53.486Z,100813.88
2024-03-12T00:36:20.894Z,100810.16
2024-03-12T00:38:48.277Z,100811.34
2024-03-12T00:41:15.651Z,100811.72
2024-03-12T00:43:43.952Z,100817.38
2024-03-12T00:46:12.218Z,100814.09
2024-03-12T00:48:39.652Z,100828.66
2024-03-12T00:51:10.301Z,100823.75
2024-03-12T00:53:37.619Z,100839.94
2024-03-12T00:56:05.366Z,100836.84
2024-03-12T00:58:35.273Z,100835.78
2024-03-12T01:01:05.077Z,100836.75
2024-03-12T01:03:32.478Z,100836.97
2024-03-12T01:05:59.761Z,100834.47
2024-03-12T01:08:27.395Z,100834.47
2024-03-12T01:10:54.720Z,100833.50
2024-03-12T01:13:22.172Z,100833.28
2024-03-12T01:15:49.805Z,100835.78
2024-03-12T01:18:17.392Z,100841.69
2024-03-12T01:20:45.460Z,100839.03
2024-03-12T01:23:14.961Z,100839.88
2024-03-12T01:25:42.946Z,100838.03
2024-03-12T01:28:12.386Z,100839.03
2024-03-12T01:30:41.109Z,100843.50
2024-03-12T01:33:09.079Z,100848.97
2024-03-12T01:35:41.087Z,100847.31
2024-03-12T01:38:12.112Z,100853.63
2024-03-12T01:40:40.933Z,100853.97
2024-03-12T01:43:09.432Z,100861.25
2024-03-12T01:45:37.967Z,100859.59
2024-03-12T01:48:11.309Z,100864.25
2024-03-12T01:50:41.042Z,100865.22
2024-03-12T01:53:09.881Z,100867.22
2024-03-12T01:55:44.918Z,100858.69
2024-03-12T01:58:18.610Z,100862.69
2024-03-12T02:00:47.384Z,100864.69
2024-03-12T02:03:16.532Z,100868.31
2024-03-12T02:05:44.005Z,100863.03
2024-03-12T02:08:12.765Z,100866.84
2024-03-12T02:10:41.326Z,100866.03
2024-03-12T02:13:08.620Z,100867.06
2024-03-12T02:15:36.323Z,100863.41
2024-03-12T02:18:04.175Z,100870.97
2024-03-12T02:20:31.611Z,100861.66
2024-03-12T02:23:00.734Z,100861.94
2024-03-12T02:25:28.379Z,100866.53
2024-03-12T02:27:57.956Z,100866.13
2024-03-12T02:30:25.521Z,100876.00
2024-03-12T02:32:54.158Z,100876.25
2024-03-12T02:35:21.748Z,100878.50
2024-03-12T02:37:49.171Z,100878.16
2024-03-12T02:40:17.438Z,100878.63
2024-03-12T02:42:46.056Z,100877.44
2024-03-12T02:45:18.052Z,100878.72
2024-03-12T02:47:47.809Z,100880.81
2024-03-12T02:50:17.771Z,100881.28
2024-03-12T02:52:47.046Z,100875.44
2024-03-12T02:55:14.972Z,100885.44
2024-03-12T02:57:42.954Z,100877.78
2024-03-12T03:00:16.225Z,100875.44
2024-03-12T03:02:45.696Z,100881.13
2024-03-12T03:05:14.805Z,100879.13
2024-03-12T03:07:43.784Z,100884.03
2024-03-12T03:10:13.329Z,100877.94
2024-03-12T03:12:43.432Z,100879.19
2024-03-12T03:15:14.721Z,100875.22
2024-03-12T03:17:47.455Z,100883.41
2024-03-12T03:20:18.037Z,100881.03
2024-03-12T03:22:46.694Z,100882.28
2024-03-12T03:25:15.116Z,100876.63
2024-03-12T03:27:43.695Z,100880.25
2024-03-12T03:30:19.953Z,100886.72
2024-03-12T03:32:49.026Z,100887.91
2024-03-12T03:35:19.819Z,100882.28
2024-03-12T03:37:47.393Z,100891.44
2024-03-12T03:40:24.584Z,100893.72
2024-03-12T03:42:53.443Z,100895.03
2024-03-12T03:45:21.246Z,100896.66
2024-03-12T03:47:48.631Z,100894.66
2024-03-12T03:50:15.950Z,100901.19
2024-03-12T03:52:43.416Z,100907.09
2024-03-12T03:55:11.520Z,100905.91
2024-03-12T03:57:38.891Z,100903.72
2024-03-12T04:00:14.457Z,100904.34
2024-03-12T04:02:45.008Z,100905.19
2024-03-12T04:05:14.094Z,100912.72
2024-03-12T04:07:42.578Z,100910.91
2024-03-12T04:10:12.515Z,100912.34
2024-03-12T04:12:43.869Z,100911.16
2024-03-12T04:15:13.120Z,100909.13
2024-03-12T04:17:45.053Z,100919.34
2024-03-12T04:20:13.176Z,100921.16
2024-03-12T04:22:44.972Z,100925.47
2024-03-12T04:25:14.098Z,100925.63
2024-03-12T04:27:41.699Z,100928.94
2024-03-12T04:30:13.516Z,100932.38
2024-03-12T04:32:42.129Z,100933.19
2024-03-12T04:35:11.488Z,100928.72
2024-03-12T04:37:39.180Z,100929.56
2024-03-12T04:40:10.602Z,100929.56
2024-03-12T04:42:40.010Z,100929.56
2024-03-12T04:45:09.066Z,100927.91
2024-03-12T04:47:39.423Z,100926.91
2024-03-12T04:50:09.636Z,100930.38
2024-03-12T04:52:37.156Z,100930.38
2024-03-12T04:55:06.858Z,100930.38
2024-03-12T04:57:37.193Z,100937.47
2024-03-12T05:00:21.163Z,100933.81
2024-03-12T05:02:51.194Z,100934.84
2024-03-12T05:05:22.972Z,100943.41
2024-03-12T05:07:54.056Z,100946.66
2024-03-12T05:10:22.780Z,100954.59
2024-03-12T05:12:53.250Z,100955.44
2024-03-12T05:15:21.739Z,100958.50
2024-03-12T05:17:50.370Z,100960.16
2024-03-12T05:20:19.427Z,100967.47
2024-03-12T05:22:47.842Z,100966.84
2024-03-12T05:25:25.787Z,100977.97
2024-03-12T05:27:53.345Z,100972.22
2024-03-12T05:30:23.441Z,100972.22
2024-03-12T05:32:51.360Z,100982.81
2024-03-12T05:35:23.906Z,100985.44
2024-03-12T05:38:04.131Z,100983.16
2024-03-12T05:40:53.109Z,100986.19
2024-03-12T05:43:38.895Z,100998.53
2024-03-12T05:46:25.004Z,101005.00
2024-03-12T05:48:52.811Z,100998.63
2024-03-12T05:51:21.484Z,100998.81
2024-03-12T05:53:49.904Z,101006.91
2024-03-12T05:56:21.123Z,101009.75
2024-03-12T05:58:48.813Z,101004.81
2024-03-12T06:01:17.419Z,101012.56
2024-03-12T06:03:45.125Z,101013.38
2024-03-12T06:06:12.685Z,101016.22
2024-03-12T06:08:40.336Z,101021.50
2024-03-12T06:11:07.739Z,101024.78
2024-03-12T06:13:35.248Z,101029.72
2024-03-12T06:16:02.691Z,101035.44
2024-03-12T06:18:30.180Z,101030.25
2024-03-12T06:20:57.647Z,101034.78
2024-03-12T06:23:27.147Z,101038.69
2024-03-12T06:25:55.060Z,101043.97
2024-03-12T06:28:23.572Z,101048.63
2024-03-12T06:30:50.931Z,101047.38
2024-03-12T06:33:19.282Z,101052.66
2024-03-12T06:35:48.921Z,101053.66
2024-03-12T06:38:17.394Z,101051.00
2024-03-12T06:40:45.049Z,101051.00
2024-03-12T06:43:15.368Z,101064.22
2024-03-12T06:45:44.212Z,101057.59
2024-03-12T06:48:12.430Z,101054.81
2024-03-12T06:50:39.913Z,101059.19
2024-03-12T06:53:07.480Z,101062.09
2024-03-12T06:55:34.814Z,101065.56
2024-03-12T06:58:06.307Z,101074.13
2024-03-12T07:00:38.659Z,101072.94
2024-03-12T07:03:06.448Z,101073.66
2024-03-12T07:05:45.037Z,101070.41
2024-03-12T07:08:12.415Z,101068.56
2024-03-12T07:10:42.246Z,101074.44
2024-03-12T07:13:09.984Z,101075.25
2024-03-12T07:15:43.054Z,101085.00
2024-03-12T07:18:10.712Z,101074.06
2024-03-12T07:20:38.118Z,101080.97
2024-03-12T07:23:07.166Z,101094.38
2024-03-12T07:25:35.030Z,101094.75
2024-03-12T07:28:08.316Z,101091.47
2024-03-12T07:30:37.393Z,101096.41
2024-03-12T07:33:05.733Z,101100.94
2024-03-12T07:35:36.612Z,101105.13
2024-03-12T07:38:05.186Z,101106.41
2024-03-12T07:40:35.815Z,101106.78
2024-03-12T07:43:07.523Z,101110.50
2024-03-12T07:45:37.083Z,101108.09
2024-03-12T07:48:07.401Z,101117.13
2024-03-12T07:50:36.324Z,101115.13
2024-03-12T07:53:07.149Z,101116.22
2024-03-12T07:55:36.722Z,101120.56
2024-03-12T07:58:04.624Z,101118.19
2024-03-12T08:00:34.057Z,101126.13
2024-03-12T08:03:01.456Z,101130.53
2024-03-12T08:05:32.989Z,101131.88
2024-03-12T08:08:02.268Z,101130.16
2024-03-12T08:10:30.252Z,101136.09
2024-03-12T08:12:57.724Z,101142.13
2024-03-12T08:15:25.410Z,101132.31
2024-03-12T08:17:57.276Z,101141.44
2024-03-12T08:20:28.331Z,101142.00
2024-03-12T08:22:55.608Z,101148.66
2024-03-12T08:25:23.850Z,101141.53
2024-03-12T08:27:51.233Z,101145.38
2024-03-12T08:30:19.984Z,101150.69
2024-03-12T08:32:48.207Z,101156.78
2024-03-12T08:35:15.822Z,101157.63
2024-03-12T08:37:43.411Z,101155.81
2024-03-12T08:40:15.809Z,101166.13
2024-03-12T08:42:50.580Z,101165.94
2024-03-12T08:45:25.190Z,101158.75
2024-03-12T08:47:52.793Z,101159.72
2024-03-12T08:50:20.181Z,101152.91
2024-03-12T08:52:47.682Z,101167.47
2024-03-12T08:55:15.452Z,101162.94
2024-03-12T08:57:43.461Z,101172.88
2024-03-12T09:00:14.755Z,101175.06
2024-03-12T09:02:42.381Z,101179.53
2024-03-12T09:05:10.992Z,101177.13
2024-03-12T09:07:38.553Z,101181.19
2024-03-12T09:10:13.227Z,101185.38
2024-03-12T09:12:42.601Z,101190.13
2024-03-12T09:15:11.268Z,101183.63
2024-03-12T09:17:40.232Z,101183.72
2024-03-12T09:20:12.084Z,101188.28
2024-03-12T09:22:41.113Z,101185.50
2024-03-12T09:25:10.140Z,101191.13
2024-03-12T09:27:38.875Z,101190.25
2024-03-12T09:30:09.104Z,101195.81
2024-03-12T09:32:36.568Z,101195.66
2024-03-12T09:35:04.215Z,101196.97
2024-03-12T09:37:33.498Z,101193.81
2024-03-12T09:40:02.325Z,101184.56
2024-03-12T09:42:32.361Z,101184.28
2024-03-12T09:45:00.963Z,101185.75
2024-03-12T09:47:28.440Z,101197.34
2024-03-12T09:49:57.340Z,101195.38
2024-03-12T09:52:27.203Z,101183.84
2024-03-12T09:54:54.800Z,101189.19
2024-03-12T09:57:24.396Z,101188.59
2024-03-12T09:59:53.463Z,101191.88
2024-03-12T10:02:22.026Z,101186.22
2024-03-12T10:04:50.817Z,101195.34
2024-03-12T10:07:18.398Z,101192.38
2024-03-12T10:09:47.532Z,101189.50
2024-03-12T10:12:20.775Z,101195.06
2024-03-12T10:14:48.174Z,101189.13
2024-03-12T10:17:17.262Z,101202.03
2024-03-12T10:19:49.051Z,101198.78
2024-03-12T10:22:22.721Z,101207.84
2024-03-12T10:24:51.296Z,101207.34
2024-03-12T10:27:19.540Z,101205.44
2024-03-12T10:29:47.004Z,101205.97
2024-03-12T10:32:29.367Z,101208.91
2024-03-12T10:34:57.644Z,101202.97
2024-03-12T10:37:36.412Z,101206.22
2024-03-12T10:40:18.367Z,101208.94
2024-03-12T10:43:03.191Z,101213.94
2024-03-12T10:45:31.213Z,101209.97
2024-03-12T10:48:01.387Z,101214.78
2024-03-12T10:50:28.801Z,101215.63
2024-03-12T10:52:56.528Z,101206.63
2024-03-12T10:55:25.246Z,101216.28
2024-03-12T10:57:56.323Z,101208.91
2024-03-12T11:00:27.427Z,101211.22
2024-03-12T11:02:59.014Z,101222.09
2024-03-12T11:05:29.320Z,101218.88
2024-03-12T11:07:59.708Z,101220.75
2024-03-12T11:10:34.767Z,101212.41
2024-03-12T11:13:03.868Z,101219.41
2024-03-12T11:15:33.042Z,101228.06
2024-03-12T11:18:01.080Z,101226.81
2024-03-12T11:20:30.238Z,101219.47
2024-03-12T11:23:02.136Z,101219.91
2024-03-12T11:25:47.007Z,101228.94
2024-03-12T11:28:26.397Z,101226.88
2024-03-12T11:30:56.999Z,101223.59
2024-03-12T11:33:40.389Z,101226.44
2024-03-12T11:36:11.998Z,101231.56
2024-03-12T11:38:39.457Z,101222.97
2024-03-12T11:41:08.127Z,101228.88
2024-03-12T11:43:41.928Z,101230.94
2024-03-12T11:46:19.071Z,101227.66
2024-03-12T11:48:48.498Z,101226.00
2024-03-12T11:51:16.908Z,101229.53
2024-03-12T11:53:46.766Z,101222.59
2024-03-12T11:56:23.463Z,101225.25
2024-03-12T11:59:02.658Z,101232.19
2024-03-12T12:01:35.197Z,101223.59
2024-03-12T12:04:09.405Z,101230.56
2024-03-12T12:06:37.300Z,101219.13
2024-03-12T12:09:10.639Z,101228.09
2024-03-12T12:11:42.257Z,101221.94
2024-03-12T12:14:11.113Z,101217.81
2024-03-12T12:16:39.263Z,101230.44
2024-03-12T12:19:16.219Z,101226.16
2024-03-12T12:21:49.286Z,101231.50
2024-03-12T12:24:17.252Z,101226.69
2024-03-12T12:26:47.056Z,101229.41
2024-03-12T12:29:16.940Z,101226.03
2024-03-12T12:31:45.218Z,101224.91
2024-03-12T12:34:14.245Z,101219.91
2024-03-12T12:36:47.442Z,101221.41
2024-03-12T12:39:18.687Z,101221.06
2024-03-12T12:41:47.711Z,101228.88
2024-03-12T12:44:18.493Z,101222.75
2024-03-12T12:46:49.761Z,101228.91
2024-03-12T12:49:19.035Z,101224.19
2024-03-12T12:51:47.966Z,101228.50
2024-03-12T12:54:20.345Z,101229.31
2024-03-12T12:56:48.274Z,101233.00
2024-03-12T12:59:21.781Z,101234.84
2024-03-12T13:01:50.348Z,101235.28
2024-03-12T13:04:28.934Z,101242.25
2024-03-12T13:06:58.453Z,101243.25
2024-03-12T13:09:37.477Z,101240.59
2024-03-12T13:12:09.607Z,101242.22
2024-03-12T13:14:38.613Z,101253.47
2024-03-12T13:17:08.716Z,101256.75
2024-03-12T13:19:36.120Z,101253.47
2024-03-12T13:22:10.300Z,101249.97
2024-03-12T13:24:43.634Z,101251.41
2024-03-12T13:27:11.208Z,101246.94
2024-03-12T13:29:39.065Z,101254.47
2024-03-12T13:32:06.956Z,101255.31
2024-03-12T13:34:34.488Z,101252.63
2024-03-12T13:37:02.603Z,101253.63
2024-03-12T13:39:30.983Z,101259.13
2024-03-12T13:41:58.343Z,101266.81
2024-03-12T13:44:25.726Z,101266.34
2024-03-12T13:46:52.981Z,101267.16
2024-03-12T13:49:21.924Z,101276.94
2024-03-12T13:51:49.421Z,101268.75
2024-03-12T13:54:16.914Z,101275.66
2024-03-12T13:56:46.741Z,101278.91
2024-03-12T13:59:15.509Z,101275.59
2024-03-12T14:01:44.045Z,101267.56
2024-03-12T14:04:13.069Z,101276.31
2024-03-12T14:06:41.550Z,101273.06
2024-03-12T14:09:13.658Z,101280.78
2024-03-12T14:11:41.489Z,101291.97
2024-03-12T14:14:12.772Z,101286.81
2024-03-12T14:16:41.025Z,101291.28
2024-03-12T14:19:08.435Z,101295.59
2024-03-12T14:21:37.277Z,101285.97
2024-03-12T14:24:06.122Z,101285.50
2024-03-12T14:26:34.161Z,101298.09
2024-03-12T14:29:01.520Z,101299.75
2024-03-12T14:31:30.012Z,101295.34
2024-03-12T14:33:57.361Z,101301.09
2024-03-12T14:36:24.702Z,101294.97
2024-03-12T14:38:54.813Z,101292.94
2024-03-12T14:41:24.150Z,101292.94
2024-03-12T14:43:51.650Z,101283.38
2024-03-12T14:46:19.435Z,101297.28
2024-03-12T14:48:47.311Z,101297.75
2024-03-12T14:51:15.103Z,101296.53
2024-03-12T14:53:42.453Z,101294.97
2024-03-12T14:56:10.705Z,101292.34
2024-03-12T14:58:38.290Z,101295.00
2024-03-12T15:01:07.801Z,101299.50
2024-03-12T15:03:36.058Z,101290.91
2024-03-12T15:06:04.594Z,101294.75
2024-03-12T15:08:31.904Z,101296.34
2024-03-12T15:10:59.305Z,101297.38
2024-03-12T15:13:26.715Z,101299.81
2024-03-12T15:15:54.392Z,101300.28
2024-03-12T15:18:24.813Z,101296.53
2024-03-12T15:20:52.476Z,101296.91
2024-03-12T15:23:19.788Z,101295.66
2024-03-12T15:25:47.710Z,101291.91
2024-03-12T15:28:15.160Z,101296.22
2024-03-12T15:30:43.948Z,101300.28
2024-03-12T15:33:12.436Z,101303.84
2024-03-12T15:35:40.781Z,101309.88
2024-03-12T15:38:08.400Z,101308.63
2024-03-12T15:40:39.169Z,101306.34
2024-03-12T15:43:07.217Z,101312.78
2024-03-12T15:45:34.889Z,101312.28
2024-03-12T15:48:02.454Z,101312.47
2024-03-12T15:50:30.061Z,101323.44
2024-03-12T15:52:58.338Z,101317.94
2024-03-12T15:55:27.447Z,101322.81
2024-03-12T15:57:56.222Z,101323.53
2024-03-12T16:00:23.929Z,101330.78
2024-03-12T16:02:55.777Z,101325.16
2024-03-12T16:05:23.988Z,101332.84
2024-03-12T16:07:52.828Z,101335.47
2024-03-12T16:10:22.040Z,101335.75
2024-03-12T16:12:49.802Z,101333.66
2024-03-12T16:15:19.471Z,101341.78
2024-03-12T16:17:47.166Z,101325.91
2024-03-12T16:20:15.635Z,101334.47
2024-03-12T16:22:43.954Z,101337.41
2024-03-12T16:25:12.275Z,101341.94
2024-03-12T16:27:41.261Z,101338.94
2024-03-12T16:30:12.452Z,101339.59
2024-03-12T16:32:41.845Z,101339.59
2024-03-12T16:35:09.988Z,101344.88
2024-03-12T16:37:40.426Z,101335.94
2024-03-12T16:40:10.730Z,101337.31
2024-03-12T16:42:38.681Z,101339.97
2024-03-12T16:45:07.508Z,101345.25
2024-03-12T16:47:35.133Z,101341.94
2024-03-12T16:50:06.214Z,101344.78
2024-03-12T16:52:33.573Z,101349.25
2024-03-12T16:55:04.972Z,101348.63
2024-03-12T16:57:35.294Z,101347.00
2024-03-12T17:00:12.347Z,101355.94
2024-03-12T17:02:43.752Z,101355.28
2024-03-12T17:05:23.969Z,101376.47
2024-03-12T17:07:57.508Z,101360.13
2024-03-12T17:10:26.096Z,101368.78
2024-03-12T17:12:54.308Z,101374.06
2024-03-12T17:15:24.828Z,101368.78
2024-03-12T17:17:53.203Z,101373.34
2024-03-12T17:20:20.630Z,101374.00
2024-03-12T17:22:49.055Z,101379.09
2024-03-12T17:25:20.619Z,101376.09
2024-03-12T17:27:50.616Z,101373.91
2024-03-12T17:30:18.242Z,101387.41
2024-03-12T17:32:47.663Z,101384.69
2024-03-12T17:35:16.672Z,101380.69
2024-03-12T17:37:48.834Z,101383.97
2024-03-12T17:40:17.098Z,101386.59
2024-03-12T17:42:46.729Z,101388.97
2024-03-12T17:45:17.959Z,101393.28
2024-03-12T17:47:56.716Z,101384.69
2024-03-12T17:50:28.863Z,101391.63
2024-03-12T17:53:08.762Z,101385.06
2024-03-12T17:55:37.519Z,101388.25
2024-03-12T17:58:07.548Z,101394.38
2024-03-12T18:00:37.011Z,101390.69
2024-03-12T18:03:05.468Z,101388.88
2024-03-12T18:05:33.028Z,101396.81
2024-03-12T18:08:06.232Z,101396.09
2024-03-12T18:10:35.423Z,101390.50
2024-03-12T18:13:04.640Z,101392.97
2024-03-12T18:15:32.086Z,101393.44
2024-03-12T18:17:59.966Z,101388.50
2024-03-12T18:20:35.003Z,101390.50
2024-03-12T18:23:02.347Z,101394.16
2024-03-12T18:25:30.924Z,101394.16
2024-03-12T18:27:59.314Z,101397.16
2024-03-12T18:30:27.799Z,101406.16
2024-03-12T18:32:58.230Z,101411.16
2024-03-12T18:35:25.713Z,101411.72
2024-03-12T18:37:53.122Z,101413.78
2024-03-12T18:40:21.312Z,101405.38
2024-03-12T18:42:49.628Z,101407.38
2024-03-12T18:45:19.912Z,101414.31
2024-03-12T18:47:49.750Z,101413.50
2024-03-12T18:50:19.214Z,101416.69
2024-03-12T18:52:47.745Z,101409.09
2024-03-12T18:55:18.351Z,101406.16
2024-03-12T18:57:47.397Z,101406.19
2024-03-12T19:00:20.159Z,101419.50
2024-03-12T19:02:53.003Z,101411.25
2024-03-12T19:05:23.568Z,101423.16
2024-03-12T19:07:53.351Z,101416.06
2024-03-12T19:10:21.815Z,101419.53
2024-03-12T19:12:50.705Z,101425.47
2024-03-12T19:15:22.872Z,101424.63
2024-03-12T19:17:52.413Z,101429.13
2024-03-12T19:20:23.873Z,101426.09
2024-03-12T19:22:57.903Z,101424.63
2024-03-12T19:25:27.476Z,101423.66
2024-03-12T19:27:55.272Z,101424.47
2024-03-12T19:30:26.181Z,101428.75
2024-03-12T19:32:54.596Z,101425.13
2024-03-12T19:35:22.880Z,101436.03
2024-03-12T19:37:50.690Z,101424.63
2024-03-12T19:40:21.289Z,101427.13
2024-03-12T19:42:50.745Z,101426.78
2024-03-12T19:45:29.068Z,101427.47
2024-03-12T19:47:58.057Z,101424.81
2024-03-12T19:50:26.643Z,101428.09
2024-03-12T19:52:56.733Z,101423.84
2024-03-12T19:55:30.911Z,101425.47
2024-03-12T19:58:03.060Z,101418.06
2024-03-12T20:00:34.329Z,101424.19
2024-03-12T20:03:06.852Z,101424.19
2024-03-12T20:05:37.248Z,101420.50
2024-03-12T20:08:06.298Z,101418.56
2024-03-12T20:10:34.057Z,101416.53
2024-03-12T20:13:06.061Z,101423.47
2024-03-12T20:15:34.766Z,101414.25
2024-03-12T20:18:02.794Z,101416.88
2024-03-12T20:20:30.346Z,101414.97
2024-03-12T20:22:59.270Z,101420.88
2024-03-12T20:25:27.770Z,101416.88
2024-03-12T20:27:56.679Z,101414.06
2024-03-12T20:30:29.275Z,101413.72
2024-03-12T20:32:58.225Z,101400.34
2024-03-12T20:35:25.784Z,101408.78
2024-03-12T20:37:53.438Z,101407.28
2024-03-12T20:40:23.909Z,101402.84
2024-03-12T20:42:51.338Z,101404.19
2024-03-12T20:45:22.967Z,101397.75
2024-03-12T20:47:50.504Z,101397.03
2024-03-12T20:50:20.472Z,101393.69
2024-03-12T20:52:48.684Z,101397.63
2024-03-12T20:55:17.215Z,101397.63
2024-03-12T20:57:48.460Z,101405.22
2024-03-12T21:00:19.744Z,101400.56
2024-03-12T21:02:49.166Z,101396.56
2024-03-12T21:05:17.709Z,101403.16
2024-03-12T21:07:45.261Z,101398.50
2024-03-12T21:10:13.565Z,101395.03
2024-03-12T21:12:43.868Z,101394.22
2024-03-12T21:15:11.650Z,101396.22
2024-03-12T21:17:39.386Z,101404.50
2024-03-12T21:20:13.810Z,101405.84
2024-03-12T21:22:42.192Z,101399.28
2024-03-12T21:25:11.857Z,101399.63
2024-03-12T21:27:39.548Z,101391.06
2024-03-12T21:30:14.303Z,101391.88
2024-03-12T21:32:42.357Z,101396.69
2024-03-12T21:35:11.002Z,101402.31
2024-03-12T21:37:39.803Z,101399.03
2024-03-12T21:40:12.928Z,101393.28
2024-03-12T21:42:44.050Z,101396.72
2024-03-12T21:45:12.981Z,101390.63
2024-03-12T21:47:41.674Z,101396.09
2024-03-12T21:50:10.400Z,101397.75
2024-03-12T21:52:37.707Z,101391.16
2024-03-12T21:55:07.588Z,101393.50
2024-03-12T21:57:38.900Z,101396.16
2024-03-12T22:00:13.000Z,101386.28
2024-03-12T22:02:40.820Z,101392.91
2024-03-12T22:05:08.300Z,101391.63
2024-03-12T22:07:38.543Z,101386.66
2024-03-12T22:10:09.510Z,101389.31
2024-03-12T22:12:37.123Z,101396.44
2024-03-12T22:15:08.307Z,101387.69
2024-03-12T22:20:06.879Z,101390.47
2024-03-12T22:22:34.343Z,101394.28
2024-03-12T22:25:02.148Z,101395.16
2024-03-12T22:27:29.725Z,101384.44
2024-03-12T22:29:57.259Z,101395.38
2024-03-12T22:32:27.400Z,101399.34
2024-03-12T22:34:56.152Z,101396.38
2024-03-12T22:37:23.860Z,101396.25
2024-03-12T22:39:51.853Z,101400.56
2024-03-12T22:42:19.568Z,101393.47
2024-03-12T22:44:47.390Z,101403.91
2024-03-12T22:47:15.386Z,101406.22
2024-03-12T22:49:44.963Z,101402.47
2024-03-12T22:52:14.356Z,101406.59
2024-03-12T22:54:42.570Z,101408.72
2024-03-12T22:57:10.912Z,101408.25
2024-03-12T22:59:38.900Z,101401.66
2024-03-12T23:02:10.849Z,101408.75
2024-03-12T23:04:38.659Z,101410.03
2024-03-12T23:07:06.349Z,101404.63
2024-03-12T23:09:34.452Z,101411.06
2024-03-12T23:12:02.322Z,101411.41
2024-03-12T23:14:31.069Z,101408.91
2024-03-12T23:16:59.777Z,101417.84
2024-03-12T23:19:28.945Z,101419.78
2024-03-12T23:21:56.434Z,101411.88
2024-03-12T23:24:24.324Z,101419.78
2024-03-12T23:26:56.220Z,101427.22
2024-03-12T23:29:23.539Z,101424.91
2024-03-12T23:31:51.887Z,101413.69
2024-03-12T23:34:19.111Z,101421.59
2024-03-12T23:36:46.777Z,101427.72
2024-03-12T23:39:16.663Z,101427.72
2024-03-12T23:41:44.192Z,101423.41
2024-03-12T23:44:14.592Z,101413.84
2024-03-12T23:46:43.495Z,101416.63
2024-03-12T23:49:10.781Z,101417.78
2024-03-12T23:51:38.812Z,101423.88
2024-03-12T23:54:07.652Z,101420.28
2024-03-12T23:56:34.967Z,101421.91
2024-03-12T23:59:02.247Z,101413.34
